秋田空港の過去48時間の天気

秋田空港 (Akita)

現在時刻: 9/17 20:21 JST (9/17 11:21 UTC) 以下の時間は現地時間です。

過去48時間のMETAR気象情報
時間 風向 風速(m/s) 視程 気温(℃) 湿度(%) 気圧(hPa) 天気現象
17 20:00 不定 1 10km以上 19 73 1013
17 19:00 西北西 4 10km以上 20 68 1013
17 18:00 西北西 4 10km以上 21 60 1013
17 17:00 北西 5 10km以上 23 57 1012
17 16:00 北西 5 10km以上 24 47 1012
17 15:00 西北西 6 10km以上 25 47 1011
17 14:00 北西 6 10km以上 25 41 1011
17 13:00 北西 6 10km以上 26 37 1011
17 12:00 西北西 6 10km以上 25 39 1011
17 11:00 北北西 4 10km以上 25 44 1011
17 10:00 北西 5 10km以上 24 47 1011
17 09:00 西北西 6 10km以上 23 53 1011
17 08:00 西北西 5 10km以上 22 60 1011
17 07:00 西北西 5 10km以上 21 69 1010
17 06:40 西北西 4 10km以上 20 73 1010
16 21:00 西北西 3 10km以上 23 89 1003
16 20:00 西北西 4 10km以上 23 89 1003
16 19:00 西北西 4 10km以上 24 83 1003
16 18:00 西北西 3 10km以上 25 78 1002
16 17:00 西北西 6 10km以上 26 74 1002
16 16:00 西 5 10km以上 27 70 1002
16 15:00 西北西 4 10km以上 29 62 1002
16 14:00 西 3 10km以上 28 58 1002
16 13:00 北西 4 10km以上 28 58 1003
16 12:00 不定 1 10km以上 27 58 1004
16 11:00 不定 1 10km以上 26 65 1004
16 10:00 不定 2 10km以上 27 62 1005
16 09:00 東南東 2 10km以上 25 69 1006
16 08:00 南東 2 10km以上 23 73 1006
16 07:00 南東 2 10km以上 21 78 1006
15 21:00 南東 2 10km以上 22 88 1009
RJSK 171100Z VRB02KT CAVOK 19/14 Q1013
RJSK 171000Z 30007KT CAVOK 20/14 Q1013
RJSK 170900Z 30007KT CAVOK 21/13 Q1013
RJSK 170800Z 31009KT 9999 FEW040 SCT/// 23/14 Q1012
RJSK 170700Z 32009KT 9999 FEW040 BKN/// 24/12 Q1012
RJSK 170600Z 30012KT 280V340 9999 FEW040 BKN/// 25/13 Q1011
RJSK 170500Z 31011KT 280V350 9999 FEW040 BKN/// 25/11 Q1011
RJSK 170400Z 31012KT 280V350 9999 FEW040 BKN/// 26/10 Q1011
RJSK 170300Z 30012KT 9999 FEW035 25/10 Q1011
RJSK 170200Z 34007KT 280V010 9999 FEW030 25/12 Q1011
RJSK 170100Z 31010KT 280V350 9999 FEW025 24/12 Q1011
RJSK 170000Z 30011KT 270V330 9999 FEW025 23/13 Q1011
RJSK 162300Z 30009KT 9999 FEW025 22/14 Q1011
RJSK 162200Z 30009KT 9999 FEW025 21/15 Q1010
RJSK 162140Z 29007KT 9999 FEW025 20/15 Q1010 RMK 1CU025 A2983
RJSK 161200Z 29005KT 9999 FEW040 SCT/// 23/21 Q1003
RJSK 161100Z 30007KT 9999 FEW050 SCT/// 23/21 Q1003
RJSK 161000Z 30007KT CAVOK 24/21 Q1003
RJSK 160900Z 30006KT 9999 FEW040 SCT080 BKN/// 25/21 Q1002
RJSK 160800Z 29011KT 9999 FEW040 BKN080 BKN/// 26/21 Q1002
RJSK 160700Z 26010KT 9999 FEW040 BKN090 BKN/// 27/21 Q1002
RJSK 160600Z 29008KT 250V320 9999 FEW030 BKN/// 29/21 Q1002
RJSK 160500Z 27006KT 210V290 9999 FEW030 SCT080 BKN/// 28/19 Q1002
RJSK 160400Z 31008KT 9999 FEW030 BKN080 BKN180 28/19 Q1003
RJSK 160300Z VRB02KT 9999 FEW025 SCT080 BKN/// 27/18 Q1004
RJSK 160200Z VRB02KT 9999 FEW025 BKN/// 26/19 Q1004
RJSK 160100Z VRB03KT 9999 FEW025 BKN/// 27/19 Q1005
RJSK 160000Z 12003KT 070V160 9999 FEW025 BKN/// 25/19 Q1006
RJSK 152300Z 14003KT 100V170 9999 FEW025 SCT/// 23/18 Q1006
RJSK 152200Z 13004KT 9999 FEW025 21/17 Q1006
RJSK 151200Z 13004KT CAVOK 22/20 Q1009